sensor_id;sensor_type;location;lat;lon;timestamp;temperature;humidity
15749;DHT22;7976;52.526;13.326;2022-11-02T00:01:23;12.60;99.90
15749;DHT22;7976;52.526;13.326;2022-11-02T00:03:52;12.50;99.90
15749;DHT22;7976;52.526;13.326;2022-11-02T00:06:19;12.60;99.90
15749;DHT22;7976;52.526;13.326;2022-11-02T00:08:45;12.50;99.90
15749;DHT22;7976;52.526;13.326;2022-11-02T00:11:12;12.50;99.90
15749;DHT22;7976;52.526;13.326;2022-11-02T00:13:40;12.50;99.90
15749;DHT22;7976;52.526;13.326;2022-11-02T00:16:09;12.40;99.90
15749;DHT22;7976;52.526;13.326;2022-11-02T00:18:39;12.40;99.90
15749;DHT22;7976;52.526;13.326;2022-11-02T00:21:07;12.40;99.90
15749;DHT22;7976;52.526;13.326;2022-11-02T00:23:36;12.40;99.90
15749;DHT22;7976;52.526;13.326;2022-11-02T00:26:03;12.40;99.90
15749;DHT22;7976;52.526;13.326;2022-11-02T00:28:30;12.40;99.90
15749;DHT22;7976;52.526;13.326;2022-11-02T00:30:58;12.40;99.90
15749;DHT22;7976;52.526;13.326;2022-11-02T00:33:25;12.30;99.90
15749;DHT22;7976;52.526;13.326;2022-11-02T00:35:52;12.30;99.90
15749;DHT22;7976;52.526;13.326;2022-11-02T00:38:19;12.30;99.90
15749;DHT22;7976;52.526;13.326;2022-11-02T00:40:46;12.30;99.90
15749;DHT22;7976;52.526;13.326;2022-11-02T00:43:13;12.30;99.90
15749;DHT22;7976;52.526;13.326;2022-11-02T00:45:40;12.20;99.90
15749;DHT22;7976;52.526;13.326;2022-11-02T00:48:09;12.20;99.90
15749;DHT22;7976;52.526;13.326;2022-11-02T00:50:37;12.20;99.90
15749;DHT22;7976;52.526;13.326;2022-11-02T00:53:04;12.20;99.90
15749;DHT22;7976;52.526;13.326;2022-11-02T00:55:31;12.10;99.90
15749;DHT22;7976;52.526;13.326;2022-11-02T00:58:01;12.10;99.90
15749;DHT22;7976;52.526;13.326;2022-11-02T01:00:28;12.10;99.90
15749;DHT22;7976;52.526;13.326;2022-11-02T01:02:58;12.10;99.90
15749;DHT22;7976;52.526;13.326;2022-11-02T01:05:27;12.10;99.90
15749;DHT22;7976;52.526;13.326;2022-11-02T01:07:54;12.00;99.90
15749;DHT22;7976;52.526;13.326;2022-11-02T01:10:22;12.00;99.90
15749;DHT22;7976;52.526;13.326;2022-11-02T01:12:50;12.00;99.90
15749;DHT22;7976;52.526;13.326;2022-11-02T01:15:17;11.90;99.90
15749;DHT22;7976;52.526;13.326;2022-11-02T01:17:43;11.90;99.90
15749;DHT22;7976;52.526;13.326;2022-11-02T01:20:10;11.90;99.90
15749;DHT22;7976;52.526;13.326;2022-11-02T01:22:39;11.90;99.90
15749;DHT22;7976;52.526;13.326;2022-11-02T01:25:06;11.80;99.90
15749;DHT22;7976;52.526;13.326;2022-11-02T01:27:33;11.80;99.90
15749;DHT22;7976;52.526;13.326;2022-11-02T01:30:01;11.80;99.90
15749;DHT22;7976;52.526;13.326;2022-11-02T01:32:28;11.80;99.90
15749;DHT22;7976;52.526;13.326;2022-11-02T01:34:55;11.80;99.90
15749;DHT22;7976;52.526;13.326;2022-11-02T01:37:22;11.70;99.90
15749;DHT22;7976;52.526;13.326;2022-11-02T01:39:50;11.70;99.90
15749;DHT22;7976;52.526;13.326;2022-11-02T01:42:19;11.70;99.90
15749;DHT22;7976;52.526;13.326;2022-11-02T01:44:48;11.70;99.90
15749;DHT22;7976;52.526;13.326;2022-11-02T01:47:18;11.70;99.90
15749;DHT22;7976;52.526;13.326;2022-11-02T01:49:52;11.70;99.90
15749;DHT22;7976;52.526;13.326;2022-11-02T01:52:26;11.70;99.90
15749;DHT22;7976;52.526;13.326;2022-11-02T01:55:00;11.70;99.90
15749;DHT22;7976;52.526;13.326;2022-11-02T01:57:32;11.70;99.90
15749;DHT22;7976;52.526;13.326;2022-11-02T02:00:05;11.70;99.90
15749;DHT22;7976;52.526;13.326;2022-11-02T02:02:44;11.70;99.90
15749;DHT22;7976;52.526;13.326;2022-11-02T02:05:15;11.70;99.90
15749;DHT22;7976;52.526;13.326;2022-11-02T02:07:43;11.70;99.90
15749;DHT22;7976;52.526;13.326;2022-11-02T02:10:12;11.60;99.90
15749;DHT22;7976;52.526;13.326;2022-11-02T02:12:40;11.60;99.90
15749;DHT22;7976;52.526;13.326;2022-11-02T02:15:09;11.50;99.90
15749;DHT22;7976;52.526;13.326;2022-11-02T02:17:43;11.50;99.90
15749;DHT22;7976;52.526;13.326;2022-11-02T02:20:28;11.50;99.90
15749;DHT22;7976;52.526;13.326;2022-11-02T02:23:26;11.50;99.90
15749;DHT22;7976;52.526;13.326;2022-11-02T02:26:39;11.50;99.90
15749;DHT22;7976;52.526;13.326;2022-11-02T02:29:20;11.50;99.90
15749;DHT22;7976;52.526;13.326;2022-11-02T02:31:54;11.50;99.90
15749;DHT22;7976;52.526;13.326;2022-11-02T02:34:29;11.40;99.90
15749;DHT22;7976;52.526;13.326;2022-11-02T02:37:06;11.40;99.90
15749;DHT22;7976;52.526;13.326;2022-11-02T02:39:41;11.40;99.90
15749;DHT22;7976;52.526;13.326;2022-11-02T02:42:18;11.40;99.90
15749;DHT22;7976;52.526;13.326;2022-11-02T02:44:58;11.40;99.90
15749;DHT22;7976;52.526;13.326;2022-11-02T02:47:32;11.30;99.90
15749;DHT22;7976;52.526;13.326;2022-11-02T02:50:08;11.30;99.90
15749;DHT22;7976;52.526;13.326;2022-11-02T02:52:40;11.30;99.90
15749;DHT22;7976;52.526;13.326;2022-11-02T02:55:13;11.30;99.90
15749;DHT22;7976;52.526;13.326;2022-11-02T02:57:46;11.30;99.90
15749;DHT22;7976;52.526;13.326;2022-11-02T03:00:17;11.30;99.90
15749;DHT22;7976;52.526;13.326;2022-11-02T03:02:46;11.30;99.90
15749;DHT22;7976;52.526;13.326;2022-11-02T03:05:29;11.30;99.90
15749;DHT22;7976;52.526;13.326;2022-11-02T03:08:05;11.20;99.90
15749;DHT22;7976;52.526;13.326;2022-11-02T03:10:43;11.20;99.90
15749;DHT22;7976;52.526;13.326;2022-11-02T03:13:25;11.20;99.90
15749;DHT22;7976;52.526;13.326;2022-11-02T03:16:06;11.20;99.90
15749;DHT22;7976;52.526;13.326;2022-11-02T03:18:46;11.10;99.90
15749;DHT22;7976;52.526;13.326;2022-11-02T03:21:23;11.10;99.90
15749;DHT22;7976;52.526;13.326;2022-11-02T03:23:59;11.10;99.90
15749;DHT22;7976;52.526;13.326;2022-11-02T03:26:33;11.00;99.90
15749;DHT22;7976;52.526;13.326;2022-11-02T03:29:11;11.00;99.90
15749;DHT22;7976;52.526;13.326;2022-11-02T03:31:46;10.90;99.90
15749;DHT22;7976;52.526;13.326;2022-11-02T03:34:24;10.90;99.90
15749;DHT22;7976;52.526;13.326;2022-11-02T03:37:00;10.90;99.90
15749;DHT22;7976;52.526;13.326;2022-11-02T03:39:35;10.90;99.90
15749;DHT22;7976;52.526;13.326;2022-11-02T03:42:12;10.90;99.90
15749;DHT22;7976;52.526;13.326;2022-11-02T03:44:47;10.90;99.90
15749;DHT22;7976;52.526;13.326;2022-11-02T03:47:21;10.90;99.90
15749;DHT22;7976;52.526;13.326;2022-11-02T03:49:52;10.90;99.90
15749;DHT22;7976;52.526;13.326;2022-11-02T03:52:23;10.80;99.90
15749;DHT22;7976;52.526;13.326;2022-11-02T03:55:01;10.80;99.90
15749;DHT22;7976;52.526;13.326;2022-11-02T03:57:37;10.80;99.90
15749;DHT22;7976;52.526;13.326;2022-11-02T04:00:10;10.80;99.90
15749;DHT22;7976;52.526;13.326;2022-11-02T04:02:48;10.80;99.90
15749;DHT22;7976;52.526;13.326;2022-11-02T04:05:18;10.80;99.90
15749;DHT22;7976;52.526;13.326;2022-11-02T04:07:49;10.80;99.90
15749;DHT22;7976;52.526;13.326;2022-11-02T04:10:36;10.80;99.90
15749;DHT22;7976;52.526;13.326;2022-11-02T04:13:25;10.70;99.90
15749;DHT22;7976;52.526;13.326;2022-11-02T04:16:10;10.80;99.90
15749;DHT22;7976;52.526;13.326;2022-11-02T04:18:39;10.70;99.90
15749;DHT22;7976;52.526;13.326;2022-11-02T04:21:26;10.80;99.90
15749;DHT22;7976;52.526;13.326;2022-11-02T04:23:54;10.70;99.90
15749;DHT22;7976;52.526;13.326;2022-11-02T04:26:39;10.70;99.90
15749;DHT22;7976;52.526;13.326;2022-11-02T04:29:06;10.70;99.90
15749;DHT22;7976;52.526;13.326;2022-11-02T04:31:39;10.70;99.90
15749;DHT22;7976;52.526;13.326;2022-11-02T04:34:08;10.70;99.90
15749;DHT22;7976;52.526;13.326;2022-11-02T04:36:35;10.70;99.90
15749;DHT22;7976;52.526;13.326;2022-11-02T04:39:02;10.60;99.90
15749;DHT22;7976;52.526;13.326;2022-11-02T04:41:30;10.60;99.90
15749;DHT22;7976;52.526;13.326;2022-11-02T04:44:15;10.60;99.90
15749;DHT22;7976;52.526;13.326;2022-11-02T04:46:50;10.60;99.90
15749;DHT22;7976;52.526;13.326;2022-11-02T04:49:31;10.60;99.90
15749;DHT22;7976;52.526;13.326;2022-11-02T04:51:58;10.50;99.90
15749;DHT22;7976;52.526;13.326;2022-11-02T04:54:29;10.50;99.90
15749;DHT22;7976;52.526;13.326;2022-11-02T04:57:04;10.40;99.90
15749;DHT22;7976;52.526;13.326;2022-11-02T04:59:32;10.40;99.90
15749;DHT22;7976;52.526;13.326;2022-11-02T05:02:04;10.40;99.90
15749;DHT22;7976;52.526;13.326;2022-11-02T05:04:41;10.40;99.90
15749;DHT22;7976;52.526;13.326;2022-11-02T05:07:09;10.40;99.90
15749;DHT22;7976;52.526;13.326;2022-11-02T05:09:38;10.40;99.90
15749;DHT22;7976;52.526;13.326;2022-11-02T05:12:07;10.30;99.90
15749;DHT22;7976;52.526;13.326;2022-11-02T05:14:35;10.30;99.90
15749;DHT22;7976;52.526;13.326;2022-11-02T05:17:05;10.30;99.90
15749;DHT22;7976;52.526;13.326;2022-11-02T05:19:34;10.30;99.90
15749;DHT22;7976;52.526;13.326;2022-11-02T05:22:03;10.30;99.90
15749;DHT22;7976;52.526;13.326;2022-11-02T05:24:30;10.30;99.90
15749;DHT22;7976;52.526;13.326;2022-11-02T05:26:57;10.30;99.90
15749;DHT22;7976;52.526;13.326;2022-11-02T05:29:29;10.30;99.90
15749;DHT22;7976;52.526;13.326;2022-11-02T05:31:56;10.30;99.90
15749;DHT22;7976;52.526;13.326;2022-11-02T05:34:23;10.30;99.90
15749;DHT22;7976;52.526;13.326;2022-11-02T05:36:52;10.30;99.90
15749;DHT22;7976;52.526;13.326;2022-11-02T05:39:20;10.30;99.90
15749;DHT22;7976;52.526;13.326;2022-11-02T05:41:47;10.30;99.90
15749;DHT22;7976;52.526;13.326;2022-11-02T05:44:14;10.30;99.90
15749;DHT22;7976;52.526;13.326;2022-11-02T05:46:42;10.30;99.90
15749;DHT22;7976;52.526;13.326;2022-11-02T05:49:11;10.40;99.90
15749;DHT22;7976;52.526;13.326;2022-11-02T05:51:40;10.30;99.90
15749;DHT22;7976;52.526;13.326;2022-11-02T05:54:08;10.30;99.90
15749;DHT22;7976;52.526;13.326;2022-11-02T05:56:36;10.30;99.90
15749;DHT22;7976;52.526;13.326;2022-11-02T05:59:03;10.40;99.90
15749;DHT22;7976;52.526;13.326;2022-11-02T06:01:31;10.40;99.90
15749;DHT22;7976;52.526;13.326;2022-11-02T06:03:58;10.30;99.90
15749;DHT22;7976;52.526;13.326;2022-11-02T06:06:26;10.30;99.90
15749;DHT22;7976;52.526;13.326;2022-11-02T06:08:54;10.30;99.90
15749;DHT22;7976;52.526;13.326;2022-11-02T06:11:20;10.30;99.90
15749;DHT22;7976;52.526;13.326;2022-11-02T06:13:50;10.30;99.90
15749;DHT22;7976;52.526;13.326;2022-11-02T06:16:17;10.30;99.90
15749;DHT22;7976;52.526;13.326;2022-11-02T06:18:44;10.30;99.90
15749;DHT22;7976;52.526;13.326;2022-11-02T06:21:11;10.20;99.90
15749;DHT22;7976;52.526;13.326;2022-11-02T06:23:39;10.30;99.90
15749;DHT22;7976;52.526;13.326;2022-11-02T06:26:08;10.30;99.90
15749;DHT22;7976;52.526;13.326;2022-11-02T06:28:37;10.30;99.90
15749;DHT22;7976;52.526;13.326;2022-11-02T06:31:05;10.40;99.90
15749;DHT22;7976;52.526;13.326;2022-11-02T06:33:32;10.40;99.90
15749;DHT22;7976;52.526;13.326;2022-11-02T06:35:58;10.40;99.90
15749;DHT22;7976;52.526;13.326;2022-11-02T06:38:25;10.40;99.90
15749;DHT22;7976;52.526;13.326;2022-11-02T06:40:53;10.40;99.90
15749;DHT22;7976;52.526;13.326;2022-11-02T06:43:21;10.50;99.90
15749;DHT22;7976;52.526;13.326;2022-11-02T06:45:48;10.50;99.90
15749;DHT22;7976;52.526;13.326;2022-11-02T06:48:16;10.50;99.90
15749;DHT22;7976;52.526;13.326;2022-11-02T06:50:42;10.50;99.90
15749;DHT22;7976;52.526;13.326;2022-11-02T06:53:09;10.50;99.90
15749;DHT22;7976;52.526;13.326;2022-11-02T06:55:36;10.50;99.90
15749;DHT22;7976;52.526;13.326;2022-11-02T06:58:03;10.50;99.90
15749;DHT22;7976;52.526;13.326;2022-11-02T07:00:30;10.50;99.90
15749;DHT22;7976;52.526;13.326;2022-11-02T07:03:01;10.50;99.90
15749;DHT22;7976;52.526;13.326;2022-11-02T07:05:31;10.50;99.90
15749;DHT22;7976;52.526;13.326;2022-11-02T07:07:59;10.50;99.90
15749;DHT22;7976;52.526;13.326;2022-11-02T07:10:26;10.50;99.90
15749;DHT22;7976;52.526;13.326;2022-11-02T07:12:55;10.50;99.90
15749;DHT22;7976;52.526;13.326;2022-11-02T07:15:24;10.50;99.90
15749;DHT22;7976;52.526;13.326;2022-11-02T07:17:52;10.50;99.90
15749;DHT22;7976;52.526;13.326;2022-11-02T07:20:19;10.50;99.90
15749;DHT22;7976;52.526;13.326;2022-11-02T07:22:56;10.50;99.90
15749;DHT22;7976;52.526;13.326;2022-11-02T07:25:25;10.60;99.90
15749;DHT22;7976;52.526;13.326;2022-11-02T07:27:53;10.60;99.90
15749;DHT22;7976;52.526;13.326;2022-11-02T07:30:20;10.60;99.90
15749;DHT22;7976;52.526;13.326;2022-11-02T07:32:47;10.70;99.90
15749;DHT22;7976;52.526;13.326;2022-11-02T07:35:14;10.70;99.90
15749;DHT22;7976;52.526;13.326;2022-11-02T07:37:42;10.80;99.90
15749;DHT22;7976;52.526;13.326;2022-11-02T07:40:11;10.80;99.90
15749;DHT22;7976;52.526;13.326;2022-11-02T07:42:43;10.90;99.90
15749;DHT22;7976;52.526;13.326;2022-11-02T07:45:11;11.00;99.90
15749;DHT22;7976;52.526;13.326;2022-11-02T07:47:42;11.00;99.90
15749;DHT22;7976;52.526;13.326;2022-11-02T07:50:10;11.10;99.90
15749;DHT22;7976;52.526;13.326;2022-11-02T07:52:43;11.20;99.90
15749;DHT22;7976;52.526;13.326;2022-11-02T07:55:13;11.40;99.90
15749;DHT22;7976;52.526;13.326;2022-11-02T07:57:40;11.40;99.90
15749;DHT22;7976;52.526;13.326;2022-11-02T08:00:09;11.50;99.90
15749;DHT22;7976;52.526;13.326;2022-11-02T08:02:40;11.50;99.90
15749;DHT22;7976;52.526;13.326;2022-11-02T08:05:07;11.60;99.90
15749;DHT22;7976;52.526;13.326;2022-11-02T08:07:34;11.60;99.90
15749;DHT22;7976;52.526;13.326;2022-11-02T08:10:01;11.70;99.90
15749;DHT22;7976;52.526;13.326;2022-11-02T08:12:29;11.70;99.90
15749;DHT22;7976;52.526;13.326;2022-11-02T08:14:56;11.70;99.90
15749;DHT22;7976;52.526;13.326;2022-11-02T08:17:23;11.80;99.90
15749;DHT22;7976;52.526;13.326;2022-11-02T08:19:50;11.80;99.90
15749;DHT22;7976;52.526;13.326;2022-11-02T08:22:17;11.80;99.90
15749;DHT22;7976;52.526;13.326;2022-11-02T08:24:43;11.80;99.90
15749;DHT22;7976;52.526;13.326;2022-11-02T08:27:10;11.80;99.90
15749;DHT22;7976;52.526;13.326;2022-11-02T08:29:38;11.90;99.90
15749;DHT22;7976;52.526;13.326;2022-11-02T08:32:05;12.00;99.90
15749;DHT22;7976;52.526;13.326;2022-11-02T08:34:32;12.00;99.90
15749;DHT22;7976;52.526;13.326;2022-11-02T08:36:58;12.00;99.90
15749;DHT22;7976;52.526;13.326;2022-11-02T08:39:25;12.00;99.90
15749;DHT22;7976;52.526;13.326;2022-11-02T08:41:52;12.00;99.90
15749;DHT22;7976;52.526;13.326;2022-11-02T08:44:19;12.00;99.90
15749;DHT22;7976;52.526;13.326;2022-11-02T08:46:47;12.10;99.90
15749;DHT22;7976;52.526;13.326;2022-11-02T08:49:13;12.00;99.90
15749;DHT22;7976;52.526;13.326;2022-11-02T08:51:43;12.00;99.90
15749;DHT22;7976;52.526;13.326;2022-11-02T08:54:10;12.10;99.90
15749;DHT22;7976;52.526;13.326;2022-11-02T08:56:37;12.00;99.90
15749;DHT22;7976;52.526;13.326;2022-11-02T08:59:03;12.00;99.90
15749;DHT22;7976;52.526;13.326;2022-11-02T09:01:31;12.00;99.90
15749;DHT22;7976;52.526;13.326;2022-11-02T09:03:59;12.00;99.90
15749;DHT22;7976;52.526;13.326;2022-11-02T09:06:26;12.10;99.90
15749;DHT22;7976;52.526;13.326;2022-11-02T09:08:53;12.10;99.90
15749;DHT22;7976;52.526;13.326;2022-11-02T09:11:20;12.10;99.90
15749;DHT22;7976;52.526;13.326;2022-11-02T09:13:47;12.20;99.90
15749;DHT22;7976;52.526;13.326;2022-11-02T09:16:14;12.20;99.90
15749;DHT22;7976;52.526;13.326;2022-11-02T09:18:40;12.30;99.90
15749;DHT22;7976;52.526;13.326;2022-11-02T09:21:09;12.40;99.90
15749;DHT22;7976;52.526;13.326;2022-11-02T09:23:36;12.50;99.90
15749;DHT22;7976;52.526;13.326;2022-11-02T09:26:02;12.50;99.90
15749;DHT22;7976;52.526;13.326;2022-11-02T09:28:29;12.60;99.90
15749;DHT22;7976;52.526;13.326;2022-11-02T09:30:56;12.70;99.90
15749;DHT22;7976;52.526;13.326;2022-11-02T09:33:23;12.70;99.90
15749;DHT22;7976;52.526;13.326;2022-11-02T09:35:50;12.80;99.90
15749;DHT22;7976;52.526;13.326;2022-11-02T09:38:18;12.80;99.90
15749;DHT22;7976;52.526;13.326;2022-11-02T09:40:48;12.90;99.90
15749;DHT22;7976;52.526;13.326;2022-11-02T09:43:34;13.00;99.90
15749;DHT22;7976;52.526;13.326;2022-11-02T09:46:10;13.00;99.90
15749;DHT22;7976;52.526;13.326;2022-11-02T09:48:45;13.10;99.90
15749;DHT22;7976;52.526;13.326;2022-11-02T09:51:19;13.20;99.90
15749;DHT22;7976;52.526;13.326;2022-11-02T09:53:58;13.20;99.90
15749;DHT22;7976;52.526;13.326;2022-11-02T09:56:31;13.30;99.90
15749;DHT22;7976;52.526;13.326;2022-11-02T09:59:01;13.40;99.90
15749;DHT22;7976;52.526;13.326;2022-11-02T10:01:41;13.40;99.90
15749;DHT22;7976;52.526;13.326;2022-11-02T10:04:43;13.50;99.90
15749;DHT22;7976;52.526;13.326;2022-11-02T10:07:31;13.80;99.90
15749;DHT22;7976;52.526;13.326;2022-11-02T10:10:13;14.10;99.90
15749;DHT22;7976;52.526;13.326;2022-11-02T10:12:52;14.30;99.90
15749;DHT22;7976;52.526;13.326;2022-11-02T10:15:34;14.50;99.90
15749;DHT22;7976;52.526;13.326;2022-11-02T10:18:03;14.50;99.90
15749;DHT22;7976;52.526;13.326;2022-11-02T10:20:41;14.40;99.90
15749;DHT22;7976;52.526;13.326;2022-11-02T10:23:14;14.40;99.90
15749;DHT22;7976;52.526;13.326;2022-11-02T10:25:50;14.40;99.90
15749;DHT22;7976;52.526;13.326;2022-11-02T10:28:20;14.30;99.90
15749;DHT22;7976;52.526;13.326;2022-11-02T10:30:51;14.30;99.90
15749;DHT22;7976;52.526;13.326;2022-11-02T10:33:22;14.30;99.90
15749;DHT22;7976;52.526;13.326;2022-11-02T10:35:58;14.20;99.90
15749;DHT22;7976;52.526;13.326;2022-11-02T10:38:51;14.20;99.90
15749;DHT22;7976;52.526;13.326;2022-11-02T10:41:56;14.30;99.90
15749;DHT22;7976;52.526;13.326;2022-11-02T10:44:42;14.30;99.90
15749;DHT22;7976;52.526;13.326;2022-11-02T10:47:24;14.30;99.90
15749;DHT22;7976;52.526;13.326;2022-11-02T10:50:16;14.30;99.90
15749;DHT22;7976;52.526;13.326;2022-11-02T10:53:00;14.30;99.90
15749;DHT22;7976;52.526;13.326;2022-11-02T10:55:35;14.40;99.90
15749;DHT22;7976;52.526;13.326;2022-11-02T10:58:15;14.40;99.90
15749;DHT22;7976;52.526;13.326;2022-11-02T11:00:45;14.40;99.90
15749;DHT22;7976;52.526;13.326;2022-11-02T11:03:14;14.50;99.90
15749;DHT22;7976;52.526;13.326;2022-11-02T11:05:56;14.50;99.90
15749;DHT22;7976;52.526;13.326;2022-11-02T11:08:34;14.50;99.90
15749;DHT22;7976;52.526;13.326;2022-11-02T11:11:10;14.60;99.90
15749;DHT22;7976;52.526;13.326;2022-11-02T11:13:42;14.60;99.90
15749;DHT22;7976;52.526;13.326;2022-11-02T11:16:12;14.60;99.90
15749;DHT22;7976;52.526;13.326;2022-11-02T11:18:39;14.70;99.90
15749;DHT22;7976;52.526;13.326;2022-11-02T11:21:07;14.70;99.90
15749;DHT22;7976;52.526;13.326;2022-11-02T11:23:34;14.80;99.90
15749;DHT22;7976;52.526;13.326;2022-11-02T11:26:02;14.80;99.90
15749;DHT22;7976;52.526;13.326;2022-11-02T11:28:33;14.80;99.90
15749;DHT22;7976;52.526;13.326;2022-11-02T11:31:12;14.80;99.90
15749;DHT22;7976;52.526;13.326;2022-11-02T11:33:44;14.80;99.90
15749;DHT22;7976;52.526;13.326;2022-11-02T11:36:24;14.80;99.90
15749;DHT22;7976;52.526;13.326;2022-11-02T11:38:56;14.80;99.90
15749;DHT22;7976;52.526;13.326;2022-11-02T11:41:26;14.80;99.90
15749;DHT22;7976;52.526;13.326;2022-11-02T11:43:54;14.80;99.90
15749;DHT22;7976;52.526;13.326;2022-11-02T11:46:22;14.80;99.90
15749;DHT22;7976;52.526;13.326;2022-11-02T11:49:04;14.80;99.90
15749;DHT22;7976;52.526;13.326;2022-11-02T11:51:47;14.70;99.90
15749;DHT22;7976;52.526;13.326;2022-11-02T11:54:23;14.80;99.90
15749;DHT22;7976;52.526;13.326;2022-11-02T11:56:52;14.90;99.90
15749;DHT22;7976;52.526;13.326;2022-11-02T11:59:27;14.90;99.90
15749;DHT22;7976;52.526;13.326;2022-11-02T12:01:59;14.90;99.90
15749;DHT22;7976;52.526;13.326;2022-11-02T12:04:28;14.90;99.90
15749;DHT22;7976;52.526;13.326;2022-11-02T12:07:13;14.80;99.90
15749;DHT22;7976;52.526;13.326;2022-11-02T12:10:00;14.80;99.90
15749;DHT22;7976;52.526;13.326;2022-11-02T12:12:43;14.80;99.90
15749;DHT22;7976;52.526;13.326;2022-11-02T12:15:35;14.80;99.90
15749;DHT22;7976;52.526;13.326;2022-11-02T12:18:39;14.80;99.90
15749;DHT22;7976;52.526;13.326;2022-11-02T12:21:32;14.80;99.90
15749;DHT22;7976;52.526;13.326;2022-11-02T12:27:35;14.70;99.90
15749;DHT22;7976;52.526;13.326;2022-11-02T12:30:16;14.80;99.90
15749;DHT22;7976;52.526;13.326;2022-11-02T12:33:01;14.80;99.90
15749;DHT22;7976;52.526;13.326;2022-11-02T12:36:06;14.80;99.90
15749;DHT22;7976;52.526;13.326;2022-11-02T12:38:51;14.90;99.90
15749;DHT22;7976;52.526;13.326;2022-11-02T12:41:36;14.90;99.90
15749;DHT22;7976;52.526;13.326;2022-11-02T12:44:22;15.00;99.90
15749;DHT22;7976;52.526;13.326;2022-11-02T12:47:12;15.10;99.90
15749;DHT22;7976;52.526;13.326;2022-11-02T12:49:52;15.10;99.90
15749;DHT22;7976;52.526;13.326;2022-11-02T12:52:40;15.10;99.90
15749;DHT22;7976;52.526;13.326;2022-11-02T12:55:24;15.10;99.90
15749;DHT22;7976;52.526;13.326;2022-11-02T12:57:59;15.10;99.90
15749;DHT22;7976;52.526;13.326;2022-11-02T13:00:32;15.00;99.90
15749;DHT22;7976;52.526;13.326;2022-11-02T13:03:07;15.00;99.90
15749;DHT22;7976;52.526;13.326;2022-11-02T13:05:51;14.90;99.90
15749;DHT22;7976;52.526;13.326;2022-11-02T13:08:32;14.90;99.90
15749;DHT22;7976;52.526;13.326;2022-11-02T13:11:07;14.90;99.90
15749;DHT22;7976;52.526;13.326;2022-11-02T13:13:43;14.90;99.90
15749;DHT22;7976;52.526;13.326;2022-11-02T13:16:13;14.80;99.90
15749;DHT22;7976;52.526;13.326;2022-11-02T13:18:45;14.80;99.90
15749;DHT22;7976;52.526;13.326;2022-11-02T13:21:18;14.80;99.90
15749;DHT22;7976;52.526;13.326;2022-11-02T13:23:56;14.90;99.90
15749;DHT22;7976;52.526;13.326;2022-11-02T13:26:27;14.90;99.90
15749;DHT22;7976;52.526;13.326;2022-11-02T13:29:04;14.90;99.90
15749;DHT22;7976;52.526;13.326;2022-11-02T13:31:41;14.90;99.90
15749;DHT22;7976;52.526;13.326;2022-11-02T13:34:14;14.90;99.90
15749;DHT22;7976;52.526;13.326;2022-11-02T13:36:48;14.80;99.90
15749;DHT22;7976;52.526;13.326;2022-11-02T13:39:21;14.80;99.90
15749;DHT22;7976;52.526;13.326;2022-11-02T13:42:37;14.70;99.90
15749;DHT22;7976;52.526;13.326;2022-11-02T13:45:30;14.70;99.90
15749;DHT22;7976;52.526;13.326;2022-11-02T13:48:46;14.80;99.90
15749;DHT22;7976;52.526;13.326;2022-11-02T13:51:25;14.80;99.90
15749;DHT22;7976;52.526;13.326;2022-11-02T13:53:59;14.90;99.90
15749;DHT22;7976;52.526;13.326;2022-11-02T13:56:35;15.00;99.90
15749;DHT22;7976;52.526;13.326;2022-11-02T13:59:04;15.10;99.90
15749;DHT22;7976;52.526;13.326;2022-11-02T14:01:37;15.20;99.90
15749;DHT22;7976;52.526;13.326;2022-11-02T14:04:07;15.20;99.90
15749;DHT22;7976;52.526;13.326;2022-11-02T14:06:46;15.30;99.90
15749;DHT22;7976;52.526;13.326;2022-11-02T14:09:26;15.20;99.90
15749;DHT22;7976;52.526;13.326;2022-11-02T14:12:28;15.20;99.90
15749;DHT22;7976;52.526;13.326;2022-11-02T14:18:28;15.00;99.90
15749;DHT22;7976;52.526;13.326;2022-11-02T14:20:56;14.90;99.90
15749;DHT22;7976;52.526;13.326;2022-11-02T14:23:36;14.90;99.90
15749;DHT22;7976;52.526;13.326;2022-11-02T14:26:32;14.80;99.90
15749;DHT22;7976;52.526;13.326;2022-11-02T14:29:49;14.70;99.90
15749;DHT22;7976;52.526;13.326;2022-11-02T14:32:22;14.70;99.90
15749;DHT22;7976;52.526;13.326;2022-11-02T14:35:13;14.60;99.90
15749;DHT22;7976;52.526;13.326;2022-11-02T14:38:04;14.60;99.90
15749;DHT22;7976;52.526;13.326;2022-11-02T14:40:59;14.50;99.90
15749;DHT22;7976;52.526;13.326;2022-11-02T14:44:02;14.60;99.90
15749;DHT22;7976;52.526;13.326;2022-11-02T14:46:53;14.50;99.90
15749;DHT22;7976;52.526;13.326;2022-11-02T14:49:25;14.50;99.90
15749;DHT22;7976;52.526;13.326;2022-11-02T14:51:59;14.40;99.90
15749;DHT22;7976;52.526;13.326;2022-11-02T14:54:29;14.50;99.90
15749;DHT22;7976;52.526;13.326;2022-11-02T14:57:02;14.40;99.90
15749;DHT22;7976;52.526;13.326;2022-11-02T14:59:35;14.40;99.90
15749;DHT22;7976;52.526;13.326;2022-11-02T15:02:13;14.30;99.90
15749;DHT22;7976;52.526;13.326;2022-11-02T15:04:47;14.30;99.90
15749;DHT22;7976;52.526;13.326;2022-11-02T15:07:19;14.30;99.90
15749;DHT22;7976;52.526;13.326;2022-11-02T15:09:53;14.30;99.90
15749;DHT22;7976;52.526;13.326;2022-11-02T15:12:28;14.20;99.90
15749;DHT22;7976;52.526;13.326;2022-11-02T15:15:00;14.20;99.90
15749;DHT22;7976;52.526;13.326;2022-11-02T15:17:58;14.10;99.90
15749;DHT22;7976;52.526;13.326;2022-11-02T15:20:41;14.10;99.90
15749;DHT22;7976;52.526;13.326;2022-11-02T15:23:17;14.10;99.90
15749;DHT22;7976;52.526;13.326;2022-11-02T15:25:50;14.00;99.90
15749;DHT22;7976;52.526;13.326;2022-11-02T15:28:21;14.00;99.90
15749;DHT22;7976;52.526;13.326;2022-11-02T15:30:50;14.00;99.90
15749;DHT22;7976;52.526;13.326;2022-11-02T15:33:32;14.00;99.90
15749;DHT22;7976;52.526;13.326;2022-11-02T15:36:03;13.90;99.90
15749;DHT22;7976;52.526;13.326;2022-11-02T15:38:32;13.90;99.90
15749;DHT22;7976;52.526;13.326;2022-11-02T15:41:06;13.90;99.90
15749;DHT22;7976;52.526;13.326;2022-11-02T15:44:08;13.90;99.90
15749;DHT22;7976;52.526;13.326;2022-11-02T15:46:58;13.80;99.90
15749;DHT22;7976;52.526;13.326;2022-11-02T15:50:04;13.80;99.90
15749;DHT22;7976;52.526;13.326;2022-11-02T15:52:52;13.70;99.90
15749;DHT22;7976;52.526;13.326;2022-11-02T15:55:32;13.70;99.90
15749;DHT22;7976;52.526;13.326;2022-11-02T15:58:14;13.60;99.90
15749;DHT22;7976;52.526;13.326;2022-11-02T16:01:10;13.60;99.90
15749;DHT22;7976;52.526;13.326;2022-11-02T16:03:44;13.60;99.90
15749;DHT22;7976;52.526;13.326;2022-11-02T16:06:14;13.60;99.90
15749;DHT22;7976;52.526;13.326;2022-11-02T16:08:50;13.60;99.90
15749;DHT22;7976;52.526;13.326;2022-11-02T16:11:18;13.60;99.90
15749;DHT22;7976;52.526;13.326;2022-11-02T16:13:46;13.50;99.90
15749;DHT22;7976;52.526;13.326;2022-11-02T16:16:15;13.50;99.90
15749;DHT22;7976;52.526;13.326;2022-11-02T16:18:46;13.50;99.90